sensor_id;sensor_type;location;lat;lon;timestamp;P1;durP1;ratioP1;P2;durP2;ratioP2
77012;SDS011;67260;53.130;17.982;2023-02-11T00:01:49;33.20;;;12.30;;
77012;SDS011;67260;53.130;17.982;2023-02-11T00:04:15;33.70;;;11.50;;
77012;SDS011;67260;53.130;17.982;2023-02-11T00:06:42;26.20;;;10.60;;
77012;SDS011;67260;53.130;17.982;2023-02-11T00:09:09;19.80;;;8.60;;
77012;SDS011;67260;53.130;17.982;2023-02-11T00:11:36;26.30;;;10.40;;
77012;SDS011;67260;53.130;17.982;2023-02-11T00:16:33;27.20;;;11.10;;
77012;SDS011;67260;53.130;17.982;2023-02-11T00:19:00;23.50;;;9.50;;
77012;SDS011;67260;53.130;17.982;2023-02-11T00:21:28;28.30;;;11.10;;
77012;SDS011;67260;53.130;17.982;2023-02-11T00:26:26;33.00;;;11.60;;
77012;SDS011;67260;53.130;17.982;2023-02-11T00:28:55;28.70;;;10.60;;
77012;SDS011;67260;53.130;17.982;2023-02-11T00:31:22;30.70;;;12.10;;
77012;SDS011;67260;53.130;17.982;2023-02-11T00:33:49;31.30;;;11.70;;
77012;SDS011;67260;53.130;17.982;2023-02-11T00:36:19;27.20;;;9.70;;
77012;SDS011;67260;53.130;17.982;2023-02-11T00:38:47;25.90;;;10.20;;
77012;SDS011;67260;53.130;17.982;2023-02-11T00:41:16;28.10;;;11.40;;
77012;SDS011;67260;53.130;17.982;2023-02-11T00:43:43;30.90;;;13.00;;
77012;SDS011;67260;53.130;17.982;2023-02-11T00:46:11;30.70;;;11.90;;
77012;SDS011;67260;53.130;17.982;2023-02-11T00:48:39;26.80;;;10.60;;
77012;SDS011;67260;53.130;17.982;2023-02-11T00:51:06;28.90;;;10.10;;
77012;SDS011;67260;53.130;17.982;2023-02-11T00:53:33;22.30;;;8.50;;
77012;SDS011;67260;53.130;17.982;2023-02-11T00:56:01;25.00;;;9.80;;
77012;SDS011;67260;53.130;17.982;2023-02-11T00:58:28;28.00;;;11.20;;
77012;SDS011;67260;53.130;17.982;2023-02-11T01:03:22;26.70;;;9.30;;
77012;SDS011;67260;53.130;17.982;2023-02-11T01:05:49;21.90;;;8.20;;
77012;SDS011;67260;53.130;17.982;2023-02-11T01:10:42;20.90;;;8.30;;
77012;SDS011;67260;53.130;17.982;2023-02-11T01:13:09;23.00;;;7.80;;
77012;SDS011;67260;53.130;17.982;2023-02-11T01:15:37;25.80;;;8.80;;
77012;SDS011;67260;53.130;17.982;2023-02-11T01:18:04;17.20;;;6.60;;
77012;SDS011;67260;53.130;17.982;2023-02-11T01:20:31;18.70;;;6.90;;
77012;SDS011;67260;53.130;17.982;2023-02-11T01:22:58;23.40;;;9.30;;
77012;SDS011;67260;53.130;17.982;2023-02-11T01:25:25;25.00;;;10.70;;
77012;SDS011;67260;53.130;17.982;2023-02-11T01:27:51;31.10;;;12.50;;
77012;SDS011;67260;53.130;17.982;2023-02-11T01:30:18;27.50;;;11.00;;
77012;SDS011;67260;53.130;17.982;2023-02-11T01:32:47;26.40;;;11.10;;
77012;SDS011;67260;53.130;17.982;2023-02-11T01:35:13;18.10;;;7.40;;
77012;SDS011;67260;53.130;17.982;2023-02-11T01:40:10;22.50;;;8.50;;
77012;SDS011;67260;53.130;17.982;2023-02-11T01:42:39;24.80;;;9.70;;
77012;SDS011;67260;53.130;17.982;2023-02-11T01:48:08;17.20;;;7.60;;
77012;SDS011;67260;53.130;17.982;2023-02-11T01:50:40;26.20;;;10.40;;
77012;SDS011;67260;53.130;17.982;2023-02-11T01:53:08;26.10;;;9.50;;
77012;SDS011;67260;53.130;17.982;2023-02-11T01:55:55;26.90;;;10.60;;
77012;SDS011;67260;53.130;17.982;2023-02-11T01:58:42;24.00;;;8.60;;
77012;SDS011;67260;53.130;17.982;2023-02-11T02:01:13;24.40;;;9.40;;
77012;SDS011;67260;53.130;17.982;2023-02-11T02:03:44;22.20;;;9.10;;
77012;SDS011;67260;53.130;17.982;2023-02-11T02:06:18;15.40;;;6.40;;
77012;SDS011;67260;53.130;17.982;2023-02-11T02:11:25;24.40;;;9.70;;
77012;SDS011;67260;53.130;17.982;2023-02-11T02:13:52;19.60;;;7.60;;
77012;SDS011;67260;53.130;17.982;2023-02-11T02:16:20;28.30;;;10.90;;
77012;SDS011;67260;53.130;17.982;2023-02-11T02:19:58;22.30;;;7.00;;
77012;SDS011;67260;53.130;17.982;2023-02-11T02:21:58;20.50;;;7.50;;
77012;SDS011;67260;53.130;17.982;2023-02-11T02:24:53;25.60;;;10.10;;
77012;SDS011;67260;53.130;17.982;2023-02-11T02:30:13;19.80;;;7.30;;
77012;SDS011;67260;53.130;17.982;2023-02-11T02:38:39;18.50;;;7.40;;
77012;SDS011;67260;53.130;17.982;2023-02-11T02:41:15;22.30;;;9.60;;
77012;SDS011;67260;53.130;17.982;2023-02-11T02:43:47;18.30;;;8.30;;
77012;SDS011;67260;53.130;17.982;2023-02-11T02:46:22;26.50;;;10.10;;
77012;SDS011;67260;53.130;17.982;2023-02-11T02:48:50;20.10;;;8.50;;
77012;SDS011;67260;53.130;17.982;2023-02-11T02:51:26;22.30;;;9.10;;
77012;SDS011;67260;53.130;17.982;2023-02-11T02:59:51;27.10;;;9.60;;
77012;SDS011;67260;53.130;17.982;2023-02-11T03:02:26;31.10;;;12.80;;
77012;SDS011;67260;53.130;17.982;2023-02-11T03:07:51;24.80;;;10.50;;
77012;SDS011;67260;53.130;17.982;2023-02-11T03:10:34;23.90;;;8.80;;
77012;SDS011;67260;53.130;17.982;2023-02-11T03:13:04;29.70;;;11.70;;
77012;SDS011;67260;53.130;17.982;2023-02-11T03:15:33;24.70;;;9.60;;
77012;SDS011;67260;53.130;17.982;2023-02-11T03:18:04;30.20;;;12.00;;
77012;SDS011;67260;53.130;17.982;2023-02-11T03:20:35;24.50;;;9.90;;
77012;SDS011;67260;53.130;17.982;2023-02-11T03:23:10;18.70;;;8.00;;
77012;SDS011;67260;53.130;17.982;2023-02-11T03:25:43;26.10;;;10.90;;
77012;SDS011;67260;53.130;17.982;2023-02-11T03:31:03;27.30;;;11.70;;
77012;SDS011;67260;53.130;17.982;2023-02-11T03:33:54;23.40;;;10.00;;
77012;SDS011;67260;53.130;17.982;2023-02-11T03:39:30;25.50;;;9.80;;
77012;SDS011;67260;53.130;17.982;2023-02-11T03:42:02;28.20;;;12.20;;
77012;SDS011;67260;53.130;17.982;2023-02-11T03:44:33;24.60;;;9.40;;
77012;SDS011;67260;53.130;17.982;2023-02-11T03:47:06;24.40;;;9.90;;
77012;SDS011;67260;53.130;17.982;2023-02-11T03:49:37;24.60;;;9.40;;
77012;SDS011;67260;53.130;17.982;2023-02-11T03:52:07;29.70;;;11.80;;
77012;SDS011;67260;53.130;17.982;2023-02-11T03:54:36;32.90;;;12.00;;
77012;SDS011;67260;53.130;17.982;2023-02-11T03:57:07;22.40;;;9.90;;
77012;SDS011;67260;53.130;17.982;2023-02-11T03:59:50;29.90;;;11.70;;
77012;SDS011;67260;53.130;17.982;2023-02-11T04:02:18;30.50;;;13.00;;
77012;SDS011;67260;53.130;17.982;2023-02-11T04:04:46;32.20;;;12.30;;
77012;SDS011;67260;53.130;17.982;2023-02-11T04:09:40;28.60;;;9.70;;
77012;SDS011;67260;53.130;17.982;2023-02-11T04:12:06;24.70;;;10.00;;
77012;SDS011;67260;53.130;17.982;2023-02-11T04:14:33;36.20;;;14.10;;
77012;SDS011;67260;53.130;17.982;2023-02-11T04:17:00;24.40;;;9.50;;
77012;SDS011;67260;53.130;17.982;2023-02-11T04:21:53;26.30;;;9.60;;
77012;SDS011;67260;53.130;17.982;2023-02-11T04:24:20;25.90;;;11.00;;
77012;SDS011;67260;53.130;17.982;2023-02-11T04:26:47;23.00;;;9.30;;
77012;SDS011;67260;53.130;17.982;2023-02-11T04:29:14;25.50;;;11.10;;
77012;SDS011;67260;53.130;17.982;2023-02-11T04:31:40;29.00;;;11.70;;
77012;SDS011;67260;53.130;17.982;2023-02-11T04:36:34;25.40;;;10.10;;
77012;SDS011;67260;53.130;17.982;2023-02-11T04:39:00;26.60;;;12.40;;
77012;SDS011;67260;53.130;17.982;2023-02-11T04:41:27;25.30;;;10.00;;
77012;SDS011;67260;53.130;17.982;2023-02-11T04:43:54;27.40;;;11.50;;
77012;SDS011;67260;53.130;17.982;2023-02-11T04:46:20;26.10;;;11.10;;
77012;SDS011;67260;53.130;17.982;2023-02-11T04:48:48;33.90;;;11.80;;
77012;SDS011;67260;53.130;17.982;2023-02-11T04:51:14;40.60;;;15.50;;
77012;SDS011;67260;53.130;17.982;2023-02-11T04:56:07;36.10;;;13.70;;
77012;SDS011;67260;53.130;17.982;2023-02-11T05:01:05;32.10;;;13.10;;
77012;SDS011;67260;53.130;17.982;2023-02-11T05:03:36;31.30;;;11.60;;
77012;SDS011;67260;53.130;17.982;2023-02-11T05:06:03;25.70;;;10.30;;
77012;SDS011;67260;53.130;17.982;2023-02-11T05:08:30;31.50;;;12.60;;
77012;SDS011;67260;53.130;17.982;2023-02-11T05:10:58;37.20;;;14.00;;
77012;SDS011;67260;53.130;17.982;2023-02-11T05:13:25;21.30;;;8.50;;
77012;SDS011;67260;53.130;17.982;2023-02-11T05:15:51;34.40;;;14.20;;
77012;SDS011;67260;53.130;17.982;2023-02-11T05:18:19;36.20;;;14.60;;
77012;SDS011;67260;53.130;17.982;2023-02-11T05:20:46;27.80;;;10.10;;
77012;SDS011;67260;53.130;17.982;2023-02-11T05:23:12;27.00;;;11.20;;
77012;SDS011;67260;53.130;17.982;2023-02-11T05:25:39;29.70;;;10.80;;
77012;SDS011;67260;53.130;17.982;2023-02-11T05:28:06;32.70;;;13.50;;
77012;SDS011;67260;53.130;17.982;2023-02-11T05:30:33;38.80;;;15.60;;
77012;SDS011;67260;53.130;17.982;2023-02-11T05:35:26;21.20;;;8.90;;
77012;SDS011;67260;53.130;17.982;2023-02-11T05:37:53;27.90;;;10.50;;
77012;SDS011;67260;53.130;17.982;2023-02-11T05:40:19;25.90;;;10.90;;
77012;SDS011;67260;53.130;17.982;2023-02-11T05:42:46;34.70;;;15.10;;
77012;SDS011;67260;53.130;17.982;2023-02-11T05:45:13;22.80;;;8.60;;
77012;SDS011;67260;53.130;17.982;2023-02-11T05:47:39;37.60;;;15.00;;
77012;SDS011;67260;53.130;17.982;2023-02-11T05:50:07;26.70;;;11.00;;
77012;SDS011;67260;53.130;17.982;2023-02-11T05:52:33;29.50;;;12.30;;
77012;SDS011;67260;53.130;17.982;2023-02-11T05:55:00;31.70;;;12.60;;
77012;SDS011;67260;53.130;17.982;2023-02-11T05:57:26;26.30;;;10.70;;
77012;SDS011;67260;53.130;17.982;2023-02-11T05:59:53;33.60;;;13.70;;
77012;SDS011;67260;53.130;17.982;2023-02-11T06:04:46;29.40;;;11.60;;
77012;SDS011;67260;53.130;17.982;2023-02-11T06:07:13;44.80;;;17.40;;
77012;SDS011;67260;53.130;17.982;2023-02-11T06:09:40;28.70;;;11.20;;
77012;SDS011;67260;53.130;17.982;2023-02-11T06:12:07;44.70;;;18.00;;
77012;SDS011;67260;53.130;17.982;2023-02-11T06:14:33;41.30;;;16.80;;
77012;SDS011;67260;53.130;17.982;2023-02-11T06:17:01;26.70;;;10.70;;
77012;SDS011;67260;53.130;17.982;2023-02-11T06:19:27;29.60;;;12.60;;
77012;SDS011;67260;53.130;17.982;2023-02-11T06:21:54;36.00;;;14.20;;
77012;SDS011;67260;53.130;17.982;2023-02-11T06:24:22;31.70;;;13.00;;
77012;SDS011;67260;53.130;17.982;2023-02-11T06:26:49;34.90;;;15.00;;
77012;SDS011;67260;53.130;17.982;2023-02-11T06:29:16;30.90;;;12.10;;
77012;SDS011;67260;53.130;17.982;2023-02-11T06:31:42;37.50;;;15.60;;
77012;SDS011;67260;53.130;17.982;2023-02-11T06:34:09;44.60;;;16.10;;
77012;SDS011;67260;53.130;17.982;2023-02-11T06:36:37;28.00;;;12.00;;
77012;SDS011;67260;53.130;17.982;2023-02-11T06:39:05;38.30;;;16.50;;
77012;SDS011;67260;53.130;17.982;2023-02-11T06:41:32;36.20;;;14.70;;
77012;SDS011;67260;53.130;17.982;2023-02-11T06:43:59;39.60;;;18.00;;
77012;SDS011;67260;53.130;17.982;2023-02-11T06:46:26;42.50;;;15.90;;
77012;SDS011;67260;53.130;17.982;2023-02-11T06:48:52;34.60;;;13.20;;
77012;SDS011;67260;53.130;17.982;2023-02-11T06:51:19;30.60;;;13.00;;
77012;SDS011;67260;53.130;17.982;2023-02-11T06:53:46;29.80;;;12.60;;
77012;SDS011;67260;53.130;17.982;2023-02-11T06:56:14;35.30;;;14.00;;
77012;SDS011;67260;53.130;17.982;2023-02-11T06:58:43;27.40;;;12.10;;
77012;SDS011;67260;53.130;17.982;2023-02-11T07:01:12;31.80;;;13.90;;
77012;SDS011;67260;53.130;17.982;2023-02-11T07:03:41;34.90;;;14.00;;
77012;SDS011;67260;53.130;17.982;2023-02-11T07:06:14;36.90;;;15.20;;
77012;SDS011;67260;53.130;17.982;2023-02-11T07:08:42;31.90;;;12.40;;
77012;SDS011;67260;53.130;17.982;2023-02-11T07:11:12;27.40;;;11.40;;
77012;SDS011;67260;53.130;17.982;2023-02-11T07:13:43;39.10;;;17.00;;
77012;SDS011;67260;53.130;17.982;2023-02-11T07:16:11;35.20;;;15.00;;
77012;SDS011;67260;53.130;17.982;2023-02-11T07:18:40;29.50;;;11.60;;
77012;SDS011;67260;53.130;17.982;2023-02-11T07:21:10;35.10;;;14.10;;
77012;SDS011;67260;53.130;17.982;2023-02-11T07:23:38;33.20;;;14.00;;
77012;SDS011;67260;53.130;17.982;2023-02-11T07:26:07;25.50;;;10.80;;
77012;SDS011;67260;53.130;17.982;2023-02-11T07:28:35;35.60;;;13.40;;
77012;SDS011;67260;53.130;17.982;2023-02-11T07:31:14;55.00;;;20.80;;
77012;SDS011;67260;53.130;17.982;2023-02-11T07:33:43;39.30;;;14.40;;
77012;SDS011;67260;53.130;17.982;2023-02-11T07:36:11;37.90;;;14.50;;
77012;SDS011;67260;53.130;17.982;2023-02-11T07:38:40;35.70;;;14.70;;
77012;SDS011;67260;53.130;17.982;2023-02-11T07:41:09;32.60;;;14.90;;
77012;SDS011;67260;53.130;17.982;2023-02-11T07:43:38;47.20;;;20.90;;
77012;SDS011;67260;53.130;17.982;2023-02-11T07:46:09;28.50;;;12.90;;
77012;SDS011;67260;53.130;17.982;2023-02-11T07:48:37;41.50;;;17.80;;
77012;SDS011;67260;53.130;17.982;2023-02-11T07:51:08;39.50;;;15.90;;
77012;SDS011;67260;53.130;17.982;2023-02-11T07:53:40;29.90;;;13.10;;
77012;SDS011;67260;53.130;17.982;2023-02-11T07:58:34;46.10;;;20.20;;
77012;SDS011;67260;53.130;17.982;2023-02-11T08:01:05;32.90;;;13.80;;
77012;SDS011;67260;53.130;17.982;2023-02-11T08:03:33;33.30;;;13.60;;
77012;SDS011;67260;53.130;17.982;2023-02-11T08:06:38;35.60;;;14.60;;
77012;SDS011;67260;53.130;17.982;2023-02-11T08:08:55;30.00;;;13.30;;
77012;SDS011;67260;53.130;17.982;2023-02-11T08:13:51;27.60;;;11.30;;
77012;SDS011;67260;53.130;17.982;2023-02-11T08:16:22;23.50;;;11.30;;
77012;SDS011;67260;53.130;17.982;2023-02-11T08:18:51;22.70;;;9.90;;
77012;SDS011;67260;53.130;17.982;2023-02-11T08:21:19;26.90;;;9.70;;
77012;SDS011;67260;53.130;17.982;2023-02-11T08:23:46;27.20;;;12.50;;
77012;SDS011;67260;53.130;17.982;2023-02-11T08:26:21;23.50;;;10.30;;
77012;SDS011;67260;53.130;17.982;2023-02-11T08:28:50;32.20;;;14.20;;
77012;SDS011;67260;53.130;17.982;2023-02-11T08:31:22;36.70;;;15.20;;
77012;SDS011;67260;53.130;17.982;2023-02-11T08:33:51;30.80;;;12.20;;
77012;SDS011;67260;53.130;17.982;2023-02-11T08:36:21;31.10;;;13.70;;
77012;SDS011;67260;53.130;17.982;2023-02-11T08:38:49;27.50;;;12.30;;
77012;SDS011;67260;53.130;17.982;2023-02-11T08:41:16;24.90;;;11.30;;
77012;SDS011;67260;53.130;17.982;2023-02-11T08:43:43;26.40;;;11.10;;
77012;SDS011;67260;53.130;17.982;2023-02-11T08:46:15;45.50;;;19.40;;
77012;SDS011;67260;53.130;17.982;2023-02-11T08:48:44;30.40;;;13.80;;
77012;SDS011;67260;53.130;17.982;2023-02-11T08:51:13;31.00;;;13.00;;
77012;SDS011;67260;53.130;17.982;2023-02-11T08:53:42;27.40;;;11.00;;
77012;SDS011;67260;53.130;17.982;2023-02-11T08:56:10;25.20;;;10.40;;
77012;SDS011;67260;53.130;17.982;2023-02-11T08:58:37;24.40;;;10.70;;
77012;SDS011;67260;53.130;17.982;2023-02-11T09:01:11;31.90;;;13.00;;
77012;SDS011;67260;53.130;17.982;2023-02-11T09:03:39;23.80;;;11.10;;
77012;SDS011;67260;53.130;17.982;2023-02-11T09:06:07;33.90;;;14.10;;
77012;SDS011;67260;53.130;17.982;2023-02-11T09:08:39;29.60;;;11.90;;
77012;SDS011;67260;53.130;17.982;2023-02-11T09:11:08;32.20;;;13.30;;
77012;SDS011;67260;53.130;17.982;2023-02-11T09:13:36;31.70;;;13.10;;
77012;SDS011;67260;53.130;17.982;2023-02-11T09:16:03;25.80;;;10.70;;
77012;SDS011;67260;53.130;17.982;2023-02-11T09:18:30;22.60;;;10.60;;
77012;SDS011;67260;53.130;17.982;2023-02-11T09:21:01;23.70;;;10.90;;
77012;SDS011;67260;53.130;17.982;2023-02-11T09:23:29;25.80;;;10.40;;
77012;SDS011;67260;53.130;17.982;2023-02-11T09:26:04;22.50;;;8.50;;
77012;SDS011;67260;53.130;17.982;2023-02-11T09:28:32;27.40;;;11.70;;
77012;SDS011;67260;53.130;17.982;2023-02-11T09:31:03;26.00;;;11.40;;
77012;SDS011;67260;53.130;17.982;2023-02-11T09:33:32;26.30;;;11.20;;
77012;SDS011;67260;53.130;17.982;2023-02-11T09:38:26;27.80;;;12.30;;
77012;SDS011;67260;53.130;17.982;2023-02-11T09:40:53;26.00;;;9.70;;
77012;SDS011;67260;53.130;17.982;2023-02-11T09:43:30;25.80;;;11.40;;
77012;SDS011;67260;53.130;17.982;2023-02-11T09:46:03;31.80;;;14.10;;
77012;SDS011;67260;53.130;17.982;2023-02-11T09:48:35;22.60;;;10.30;;
77012;SDS011;67260;53.130;17.982;2023-02-11T09:51:05;21.20;;;9.00;;
77012;SDS011;67260;53.130;17.982;2023-02-11T09:56:11;28.50;;;11.70;;
77012;SDS011;67260;53.130;17.982;2023-02-11T09:58:41;23.30;;;11.20;;
77012;SDS011;67260;53.130;17.982;2023-02-11T10:04:00;18.20;;;9.10;;
77012;SDS011;67260;53.130;17.982;2023-02-11T10:22:40;24.40;;;10.00;;
77012;SDS011;67260;53.130;17.982;2023-02-11T10:25:54;24.30;;;8.90;;
77012;SDS011;67260;53.130;17.982;2023-02-11T10:28:15;28.40;;;12.10;;
77012;SDS011;67260;53.130;17.982;2023-02-11T10:31:02;24.90;;;11.40;;
77012;SDS011;67260;53.130;17.982;2023-02-11T10:35:58;23.10;;;10.20;;
77012;SDS011;67260;53.130;17.982;2023-02-11T10:38:25;22.20;;;8.30;;
77012;SDS011;67260;53.130;17.982;2023-02-11T10:40:53;25.30;;;11.00;;
77012;SDS011;67260;53.130;17.982;2023-02-11T10:43:21;26.90;;;12.40;;
77012;SDS011;67260;53.130;17.982;2023-02-11T10:45:52;27.00;;;11.60;;
77012;SDS011;67260;53.130;17.982;2023-02-11T10:51:11;22.40;;;9.50;;
77012;SDS011;67260;53.130;17.982;2023-02-11T10:53:41;29.90;;;13.80;;
77012;SDS011;67260;53.130;17.982;2023-02-11T10:56:13;30.30;;;13.30;;
77012;SDS011;67260;53.130;17.982;2023-02-11T10:58:55;27.10;;;11.40;;
77012;SDS011;67260;53.130;17.982;2023-02-11T11:01:47;26.30;;;11.80;;
77012;SDS011;67260;53.130;17.982;2023-02-11T11:04:32;19.00;;;7.80;;
77012;SDS011;67260;53.130;17.982;2023-02-11T11:07:19;26.20;;;11.70;;
77012;SDS011;67260;53.130;17.982;2023-02-11T11:09:55;21.70;;;10.00;;
77012;SDS011;67260;53.130;17.982;2023-02-11T11:12:25;25.10;;;12.10;;
77012;SDS011;67260;53.130;17.982;2023-02-11T11:14:57;25.70;;;10.80;;
77012;SDS011;67260;53.130;17.982;2023-02-11T11:17:50;26.00;;;9.70;;
77012;SDS011;67260;53.130;17.982;2023-02-11T11:20:35;16.60;;;7.40;;
77012;SDS011;67260;53.130;17.982;2023-02-11T11:23:16;18.40;;;8.30;;
77012;SDS011;67260;53.130;17.982;2023-02-11T11:25:45;22.20;;;11.50;;
77012;SDS011;67260;53.130;17.982;2023-02-11T11:28:27;22.70;;;8.70;;
77012;SDS011;67260;53.130;17.982;2023-02-11T11:30:56;23.20;;;10.40;;
77012;SDS011;67260;53.130;17.982;2023-02-11T11:33:26;24.10;;;11.20;;
77012;SDS011;67260;53.130;17.982;2023-02-11T11:35:56;23.50;;;10.60;;
77012;SDS011;67260;53.130;17.982;2023-02-11T11:38:26;17.80;;;8.10;;
77012;SDS011;67260;53.130;17.982;2023-02-11T11:43:59;17.50;;;8.30;;
77012;SDS011;67260;53.130;17.982;2023-02-11T11:46:50;22.20;;;9.90;;
77012;SDS011;67260;53.130;17.982;2023-02-11T11:49:55;19.60;;;9.40;;
77012;SDS011;67260;53.130;17.982;2023-02-11T11:52:34;18.70;;;8.50;;
77012;SDS011;67260;53.130;17.982;2023-02-11T11:55:20;27.30;;;13.30;;
77012;SDS011;67260;53.130;17.982;2023-02-11T11:57:56;18.50;;;8.20;;
77012;SDS011;67260;53.130;17.982;2023-02-11T12:03:31;19.50;;;9.90;;
77012;SDS011;67260;53.130;17.982;2023-02-11T12:19:53;17.30;;;8.40;;
77012;SDS011;67260;53.130;17.982;2023-02-11T12:27:46;15.50;;;7.90;;
77012;SDS011;67260;53.130;17.982;2023-02-11T12:30:48;18.80;;;8.70;;
77012;SDS011;67260;53.130;17.982;2023-02-11T12:39:05;13.30;;;5.80;;
77012;SDS011;67260;53.130;17.982;2023-02-11T12:50:58;13.80;;;6.90;;
77012;SDS011;67260;53.130;17.982;2023-02-11T12:56:13;15.30;;;7.00;;
77012;SDS011;67260;53.130;17.982;2023-02-11T12:58:46;14.80;;;7.10;;
77012;SDS011;67260;53.130;17.982;2023-02-11T13:01:19;14.40;;;7.00;;
77012;SDS011;67260;53.130;17.982;2023-02-11T13:03:58;17.20;;;9.80;;
77012;SDS011;67260;53.130;17.982;2023-02-11T13:06:33;21.30;;;10.50;;
77012;SDS011;67260;53.130;17.982;2023-02-11T13:09:08;16.50;;;8.30;;
77012;SDS011;67260;53.130;17.982;2023-02-11T13:11:50;16.50;;;6.70;;
77012;SDS011;67260;53.130;17.982;2023-02-11T13:17:03;13.30;;;6.70;;
77012;SDS011;67260;53.130;17.982;2023-02-11T13:19:43;14.90;;;6.30;;
77012;SDS011;67260;53.130;17.982;2023-02-11T13:22:37;12.90;;;6.30;;
77012;SDS011;67260;53.130;17.982;2023-02-11T13:28:17;15.70;;;7.80;;
77012;SDS011;67260;53.130;17.982;2023-02-11T13:31:01;16.10;;;7.60;;
77012;SDS011;67260;53.130;17.982;2023-02-11T13:33:33;14.30;;;6.60;;
77012;SDS011;67260;53.130;17.982;2023-02-11T13:38:28;12.70;;;7.40;;
77012;SDS011;67260;53.130;17.982;2023-02-11T13:43:27;13.70;;;6.80;;
77012;SDS011;67260;53.130;17.982;2023-02-11T13:45:56;12.30;;;5.50;;
77012;SDS011;67260;53.130;17.982;2023-02-11T13:48:32;16.60;;;8.40;;
77012;SDS011;67260;53.130;17.982;2023-02-11T13:51:06;16.20;;;7.80;;
77012;SDS011;67260;53.130;17.982;2023-02-11T13:53:55;18.70;;;8.90;;
77012;SDS011;67260;53.130;17.982;2023-02-11T13:56:31;16.40;;;8.10;;
77012;SDS011;67260;53.130;17.982;2023-02-11T13:59:04;10.30;;;4.80;;
77012;SDS011;67260;53.130;17.982;2023-02-11T14:13:34;13.30;;;6.40;;
77012;SDS011;67260;53.130;17.982;2023-02-11T14:21:18;13.90;;;6.40;;
77012;SDS011;67260;53.130;17.982;2023-02-11T14:23:47;16.40;;;7.90;;
77012;SDS011;67260;53.130;17.982;2023-02-11T14:29:09;14.60;;;6.90;;
77012;SDS011;67260;53.130;17.982;2023-02-11T14:31:53;14.50;;;7.20;;
77012;SDS011;67260;53.130;17.982;2023-02-11T14:34:55;13.60;;;6.70;;
77012;SDS011;67260;53.130;17.982;2023-02-11T14:43:05;13.00;;;6.30;;
77012;SDS011;67260;53.130;17.982;2023-02-11T14:45:38;16.40;;;8.10;;
77012;SDS011;67260;53.130;17.982;2023-02-11T14:48:07;17.10;;;9.40;;
77012;SDS011;67260;53.130;17.982;2023-02-11T14:50:45;13.60;;;6.90;;
77012;SDS011;67260;53.130;17.982;2023-02-11T14:53:17;13.80;;;7.90;;
77012;SDS011;67260;53.130;17.982;2023-02-11T14:55:47;14.50;;;7.50;;
77012;SDS011;67260;53.130;17.982;2023-02-11T14:58:27;17.40;;;7.90;;
77012;SDS011;67260;53.130;17.982;2023-02-11T15:00:57;15.10;;;7.50;;
77012;SDS011;67260;53.130;17.982;2023-02-11T15:03:27;16.60;;;9.00;;
77012;SDS011;67260;53.130;17.982;2023-02-11T15:06:27;14.70;;;8.40;;
77012;SDS011;67260;53.130;17.982;2023-02-11T15:09:00;14.20;;;6.80;;
77012;SDS011;67260;53.130;17.982;2023-02-11T15:11:37;16.60;;;9.10;;
77012;SDS011;67260;53.130;17.982;2023-02-11T15:16:47;17.10;;;8.10;;
77012;SDS011;67260;53.130;17.982;2023-02-11T15:19:24;13.90;;;6.50;;
77012;SDS011;67260;53.130;17.982;2023-02-11T15:21:56;20.10;;;9.30;;
77012;SDS011;67260;53.130;17.982;2023-02-11T15:24:28;20.60;;;9.40;;
77012;SDS011;67260;53.130;17.982;2023-02-11T15:27:10;22.40;;;9.90;;
77012;SDS011;67260;53.130;17.982;2023-02-11T15:29:48;20.00;;;8.40;;
77012;SDS011;67260;53.130;17.982;2023-02-11T15:34:50;21.00;;;9.10;;
77012;SDS011;67260;53.130;17.982;2023-02-11T15:37:23;21.10;;;9.20;;
77012;SDS011;67260;53.130;17.982;2023-02-11T15:39:52;18.50;;;8.80;;
77012;SDS011;67260;53.130;17.982;2023-02-11T15:42:27;19.50;;;9.60;;
77012;SDS011;67260;53.130;17.982;2023-02-11T15:47:41;21.30;;;8.80;;
77012;SDS011;67260;53.130;17.982;2023-02-11T15:50:21;19.20;;;9.40;;
77012;SDS011;67260;53.130;17.982;2023-02-11T15:52:51;15.50;;;7.60;;
77012;SDS011;67260;53.130;17.982;2023-02-11T15:55:19;19.10;;;9.20;;
77012;SDS011;67260;53.130;17.982;2023-02-11T15:57:56;19.60;;;8.60;;
77012;SDS011;67260;53.130;17.982;2023-02-11T16:00:31;18.60;;;9.10;;
77012;SDS011;67260;53.130;17.982;2023-02-11T16:03:02;22.70;;;11.50;;
77012;SDS011;67260;53.130;17.982;2023-02-11T16:05:34;22.30;;;10.90;;
77012;SDS011;67260;53.130;17.982;2023-02-11T16:08:12;20.10;;;9.90;;
77012;SDS011;67260;53.130;17.982;2023-02-11T16:10:54;21.80;;;9.60;;
77012;SDS011;67260;53.130;17.982;2023-02-11T16:13:24;19.80;;;9.90;;
77012;SDS011;67260;53.130;17.982;2023-02-11T16:15:54;19.10;;;8.60;;
77012;SDS011;67260;53.130;17.982;2023-02-11T16:21:02;21.20;;;10.90;;
77012;SDS011;67260;53.130;17.982;2023-02-11T16:23:34;21.90;;;9.30;;
77012;SDS011;67260;53.130;17.982;2023-02-11T16:26:05;18.20;;;9.10;;
77012;SDS011;67260;53.130;17.982;2023-02-11T16:28:37;19.00;;;8.70;;
77012;SDS011;67260;53.130;17.982;2023-02-11T16:31:05;15.80;;;7.70;;
77012;SDS011;67260;53.130;17.982;2023-02-11T16:33:32;17.60;;;8.00;;
77012;SDS011;67260;53.130;17.982;2023-02-11T16:38:27;21.50;;;9.60;;
77012;SDS011;67260;53.130;17.982;2023-02-11T16:40:54;21.90;;;9.90;;
77012;SDS011;67260;53.130;17.982;2023-02-11T16:45:48;15.50;;;7.60;;
77012;SDS011;67260;53.130;17.982;2023-02-11T16:48:15;18.10;;;8.90;;
77012;SDS011;67260;53.130;17.982;2023-02-11T16:50:46;20.10;;;9.60;;
77012;SDS011;67260;53.130;17.982;2023-02-11T16:53:16;15.60;;;6.70;;
77012;SDS011;67260;53.130;17.982;2023-02-11T16:55:46;17.60;;;8.50;;
77012;SDS011;67260;53.130;17.982;2023-02-11T16:58:13;13.20;;;6.10;;
77012;SDS011;67260;53.130;17.982;2023-02-11T17:00:40;18.00;;;8.30;;
77012;SDS011;67260;53.130;17.982;2023-02-11T17:03:13;20.00;;;9.90;;
77012;SDS011;67260;53.130;17.982;2023-02-11T17:05:43;29.30;;;11.70;;
77012;SDS011;67260;53.130;17.982;2023-02-11T17:08:11;24.30;;;10.70;;
77012;SDS011;67260;53.130;17.982;2023-02-11T17:10:38;20.70;;;9.10;;
77012;SDS011;67260;53.130;17.982;2023-02-11T17:15:32;21.30;;;9.90;;
77012;SDS011;67260;53.130;17.982;2023-02-11T17:17:59;24.00;;;9.60;;
77012;SDS011;67260;53.130;17.982;2023-02-11T17:20:25;16.90;;;6.70;;
77012;SDS011;67260;53.130;17.982;2023-02-11T17:22:52;16.10;;;6.20;;
77012;SDS011;67260;53.130;17.982;2023-02-11T17:25:19;21.30;;;7.80;;
77012;SDS011;67260;53.130;17.982;2023-02-11T17:27:46;20.10;;;7.80;;
77012;SDS011;67260;53.130;17.982;2023-02-11T17:30:13;14.80;;;5.30;;
77012;SDS011;67260;53.130;17.982;2023-02-11T17:32:40;26.20;;;10.20;;
77012;SDS011;67260;53.130;17.982;2023-02-11T17:37:33;16.90;;;6.70;;
77012;SDS011;67260;53.130;17.982;2023-02-11T17:42:26;18.10;;;7.10;;
77012;SDS011;67260;53.130;17.982;2023-02-11T17:44:54;18.10;;;6.50;;
77012;SDS011;67260;53.130;17.982;2023-02-11T17:47:21;21.00;;;8.20;;
77012;SDS011;67260;53.130;17.982;2023-02-11T17:52:14;21.20;;;7.20;;
77012;SDS011;67260;53.130;17.982;2023-02-11T17:54:42;23.50;;;8.80;;